Terminal Aerodrome Forecast
Issued by NWS

Home | Current Version | Previous Version | Text Only | Print | Product List | Glossary On
Versions: 1 2 3 4 5 6 7 8 9 10 11 12 13 14 15 16 17
000
FTUS43 KDMX 271731
TAFOTM
TAF
KOTM 271731Z 2718/2818 16009KT P6SM SKC
     FM281000 17013KT P6SM VCSH BKN100 WS016/19045KT
     FM281300 18016G24KT P6SM VCSH OVC090=

USA.gov is the U.S. government's official web portal to all federal, state and local government web resources and services.